VK4VP-5 Buderim QLD AU current weather conditions

sailwx.info

Wind from 349 at 0 knots gusting 7

Air temperature 26.1° C
Dewpoint 21.8° C

Last reported at 2017-Jan-18 15:36 UTC.
Time now 2017-Jan-18 16:14 UTC

Location: S 26°42' E 153°05'.
View on Google Maps.

See reports from other nearby stations

  
Tides and Currents Weather Stations Pressure Air Temp Water Temp Dewpoint Dewpoint Depression Visibility Wind Speed Wind Dir Waves Ship Positions
date/time (UTC)wind fromknots sea level pressurealtimeterstation pressurevisibilityair tempwater tempwave heightnotes
2017-Jan-18 15:48 354 26.1
2017-Jan-18 15:36 349 0 gusting 7 26.1
2017-Jan-18 15:28 350 0 gusting 7 26.1
2017-Jan-18 15:18 348 1 gusting 9 26.1
2017-Jan-18 15:06 341 0 gusting 7 26.1
2017-Jan-18 14:58 346 0 gusting 8 26.1
2017-Jan-18 14:48 333 1 gusting 8 26.1
2017-Jan-18 14:36 321 3 gusting 11 26.1
2017-Jan-18 14:28 333 5 gusting 10 26.7
2017-Jan-18 14:16 335 7 gusting 16 26.7
2017-Jan-18 14:08 339 8 gusting 18 26.7
2017-Jan-18 13:56 330 7 gusting 17 26.7
2017-Jan-18 13:46 341 6 gusting 14 26.7
2017-Jan-18 13:38 340 6 gusting 15 26.7
2017-Jan-18 13:26 341 6 gusting 12 26.7
2017-Jan-18 13:16 007 6 gusting 13 26.7
2017-Jan-18 13:06 353 1 gusting 8 26.7
2017-Jan-18 12:56 342 1 gusting 11 27.2
2017-Jan-18 12:46 352 3 gusting 11 27.2
2017-Jan-18 12:36 356 1 gusting 8 27.2
2017-Jan-18 12:28 002 1 gusting 8 27.2
2017-Jan-18 12:18 006 0 gusting 7 27.2
2017-Jan-18 12:06 013 1 gusting 8 27.2
2017-Jan-18 11:56 013 27.2
2017-Jan-18 11:48 012 0 gusting 6 27.2
2017-Jan-18 11:36 016 0 gusting 3 27.2
2017-Jan-18 11:26 016 0 gusting 6 27.2
2017-Jan-18 11:16 018 1 gusting 7 27.2
2017-Jan-18 11:06 019 2 gusting 8 27.2
2017-Jan-18 10:58 018 2 gusting 9 27.2
2017-Jan-18 10:46 017 1 gusting 8 27.2
2017-Jan-18 10:36 018 1 gusting 8 27.2
2017-Jan-18 10:26 017 1 gusting 7 27.2
2017-Jan-18 10:16 017 3 gusting 9 27.2
2017-Jan-18 10:06 016 3 gusting 6 27.2
2017-Jan-18 09:56 015 3 gusting 8 27.2
2017-Jan-18 09:46 016 3 gusting 8 27.8
2017-Jan-18 09:36 015 3 gusting 8 27.2
2017-Jan-18 09:26 020 3 gusting 8 27.2
2017-Jan-18 09:16 022 5 gusting 10 27.2
2017-Jan-18 09:06 011 6 gusting 13 27.2
2017-Jan-18 08:56 015 8 gusting 15 27.2
2017-Jan-18 08:46 014 9 gusting 15 27.8
2017-Jan-18 08:36 019 8 gusting 16 27.8
2017-Jan-18 08:08 019 9 gusting 19 28.3
2017-Jan-18 07:56 025 9 gusting 18 28.3
2017-Jan-18 07:46 021 9 gusting 18 28.3
2017-Jan-18 07:36 026 9 gusting 18 28.3
2017-Jan-18 07:26 028 11 gusting 19 28.3
2017-Jan-18 07:16 030 11 gusting 19 28.3
2017-Jan-18 07:06 031 11 gusting 19 28.3
2017-Jan-18 06:56 030 10 gusting 19 28.3
2017-Jan-18 06:46 030 10 gusting 18 28.9
2017-Jan-18 06:36 026 9 gusting 17 28.9
2017-Jan-18 06:26 030 9 gusting 16 28.9
2017-Jan-18 06:16 025 9 gusting 17 28.9
2017-Jan-18 06:06 023 8 gusting 18 29.4
2017-Jan-18 05:56 026 9 gusting 18 28.9
2017-Jan-18 05:46 022 10 gusting 18 28.9
2017-Jan-18 05:36 017 9 gusting 19 29.4
2017-Jan-18 05:26 027 9 gusting 17 29.4
2017-Jan-18 05:16 025 9 gusting 19 29.4
2017-Jan-18 05:06 020 9 gusting 18 29.4
2017-Jan-18 04:56 024 9 gusting 18 29.4
2017-Jan-18 04:46 036 8 gusting 17 29.4
2017-Jan-18 04:36 017 8 gusting 15 29.4
2017-Jan-18 04:26 021 8 gusting 18 29.4
2017-Jan-18 04:16 034 8 gusting 16 29.4
2017-Jan-18 04:06 033 8 gusting 14 29.4
2017-Jan-18 03:56 037 8 gusting 14 29.4
2017-Jan-18 03:46 032 7 gusting 14 30.0
2017-Jan-18 03:36 034 8 gusting 13 30.0
2017-Jan-18 03:26 028 8 gusting 14 30.0
2017-Jan-18 03:16 014 8 gusting 15 30.0
2017-Jan-18 03:06 016 8 gusting 16 30.0
2017-Jan-18 02:56 028 7 gusting 12 30.0
2017-Jan-18 02:46 017 8 gusting 13 30.0
2017-Jan-18 02:36 036 8 gusting 16 30.0
2017-Jan-18 02:26 035 6 gusting 15 30.6
2017-Jan-18 02:16 006 2 gusting 9 31.7
2017-Jan-18 02:06 344 3 gusting 9 32.2
2017-Jan-18 01:56 329 5 gusting 10 33.3
2017-Jan-18 01:46 323 2 gusting 14 32.8
2017-Jan-18 01:36 323 2 gusting 11 32.8
2017-Jan-18 01:26 332 5 gusting 11 32.2
2017-Jan-18 01:16 338 5 gusting 10 31.7
2017-Jan-18 01:06 339 6 gusting 10 31.7
2017-Jan-18 00:56 340 2 gusting 10 31.7
2017-Jan-18 00:46 347 5 gusting 11 31.1
2017-Jan-18 00:36 355 6 gusting 11 30.6
2017-Jan-18 00:26 338 2 gusting 9 30.6
2017-Jan-18 00:16 350 5 gusting 11 30.0
2017-Jan-18 00:06 359 3 gusting 8 30.0
2017-Jan-17 23:56 339 3 gusting 8 30.0
2017-Jan-17 23:46 339 2 gusting 8 29.4
2017-Jan-17 23:36 341 3 gusting 12 29.4
2017-Jan-17 23:26 345 6 gusting 11 28.9
2017-Jan-17 23:16 334 3 gusting 11 28.9
2017-Jan-17 23:06 333 3 gusting 9 28.9
2017-Jan-17 22:56 333 2 gusting 9 28.3
2017-Jan-17 22:46 333 3 gusting 10 28.3
2017-Jan-17 22:36 339 3 gusting 10 27.8
2017-Jan-17 22:26 341 3 gusting 10 27.8
2017-Jan-17 22:16 354 3 gusting 9 27.8
2017-Jan-17 22:06 355 3 gusting 9 27.2
2017-Jan-17 21:56 005 2 gusting 9 26.7
2017-Jan-17 21:46 011 1 gusting 8 26.7
2017-Jan-17 21:36 012 3 gusting 8 26.1
2017-Jan-17 21:26 014 5 gusting 11 26.1
2017-Jan-17 21:16 018 2 gusting 9 25.6
2017-Jan-17 21:06 019 1 gusting 8 25.6
2017-Jan-17 20:56 021 1 gusting 8 25.6
2017-Jan-17 20:46 022 0 gusting 7 25.0
2017-Jan-17 20:36 023 2 gusting 8 25.0
2017-Jan-17 20:26 027 24.4
2017-Jan-17 20:16 026 0 gusting 6 24.4
2017-Jan-17 20:06 027 0 gusting 6 23.9
2017-Jan-17 19:56 027 23.3
2017-Jan-17 19:46 027 22.8
2017-Jan-17 19:36 026 22.2
2017-Jan-17 19:26 22.2
2017-Jan-17 19:16 026 22.2
2017-Jan-17 19:06 027 22.2
2017-Jan-17 18:56 22.2
2017-Jan-17 18:46 22.2
2017-Jan-17 18:36 22.2
2017-Jan-17 18:26 024 22.8
2017-Jan-17 18:16 22.8
2017-Jan-17 18:06 23.3
2017-Jan-17 17:56 23.3
2017-Jan-17 17:46 025 23.3
2017-Jan-17 17:36 025 23.3
2017-Jan-17 17:26 23.3
2017-Jan-17 17:16 23.3
2017-Jan-17 17:06 024 23.3
2017-Jan-17 16:56 024 23.9
2017-Jan-17 16:46 025 23.9
2017-Jan-17 16:36 025 23.9
2017-Jan-17 16:26 025 23.9
2017-Jan-17 16:16 025 0 gusting 7 23.9
2017-Jan-17 16:06 024 1 gusting 6 23.9
2017-Jan-17 15:56 025 23.9
2017-Jan-17 15:46 024 1 gusting 6 23.9
2017-Jan-17 15:36 025 0 gusting 5 23.9
2017-Jan-17 15:26 025 23.9
2017-Jan-17 15:16 025 23.9
2017-Jan-17 14:46 024 23.9
2017-Jan-17 14:36 025 23.9
2017-Jan-17 14:26 025 24.4
2017-Jan-17 14:16 025 24.4
2017-Jan-17 14:06 025 24.4
2017-Jan-17 13:56 025 24.4
2017-Jan-17 13:46 025 24.4
2017-Jan-17 13:36 025 24.4
2017-Jan-17 13:26 025 24.4
2017-Jan-17 13:16 025 24.4
2017-Jan-17 13:06 024 24.4
2017-Jan-17 12:56 025 24.4
2017-Jan-17 12:46 025 25.0
2017-Jan-17 12:36 025 25.0
2017-Jan-17 12:26 025 25.0
2017-Jan-17 12:16 025 25.0
2017-Jan-17 12:06 025 25.0
2017-Jan-17 11:56 025 25.0
2017-Jan-17 11:46 025 0 gusting 6 25.6
2017-Jan-17 11:36 025 25.6
2017-Jan-17 11:26 025 25.6
2017-Jan-17 11:16 025 25.6
2017-Jan-17 11:06 025 25.6
2017-Jan-17 10:56 025 26.1
2017-Jan-17 10:46 025 0 gusting 6 26.1
2017-Jan-17 10:36 025 26.1
2017-Jan-17 10:26 025 26.1
2017-Jan-17 10:16 025 0 gusting 6 26.1
2017-Jan-17 10:06 025 26.1
2017-Jan-17 09:56 025 0 gusting 5 26.1
2017-Jan-17 09:46 024 2 gusting 8 26.1
2017-Jan-17 09:36 022 0 gusting 7 26.1
2017-Jan-17 09:26 021 1 gusting 6 26.7
2017-Jan-17 09:16 023 1 gusting 8 26.7
2017-Jan-17 09:06 041 1 gusting 9 26.7
2017-Jan-17 08:56 041 1 gusting 8 26.7
2017-Jan-17 08:46 041 1 gusting 8 26.7
2017-Jan-17 08:36 041 0 gusting 8 26.7
2017-Jan-17 08:26 041 1 gusting 8 27.2
2017-Jan-17 08:16 041 1 gusting 8 27.2
2017-Jan-17 08:06 041 3 gusting 9 27.2
2017-Jan-17 07:56 041 2 gusting 8 27.2
2017-Jan-17 07:46 040 2 gusting 9 27.2
2017-Jan-17 07:36 039 2 gusting 9 27.8
2017-Jan-17 07:26 039 3 gusting 9 27.8
2017-Jan-17 07:16 045 3 gusting 12 27.8
2017-Jan-17 07:06 053 5 gusting 11 27.8
2017-Jan-17 06:56 053 0 gusting 7 28.3
2017-Jan-17 06:46 044 2 gusting 8 28.3
2017-Jan-17 06:36 036 5 gusting 11 27.8
2017-Jan-17 06:26 034 3 gusting 9 28.3
2017-Jan-17 06:16 037 6 gusting 11 27.8
2017-Jan-17 06:06 040 2 gusting 10 28.3
2017-Jan-17 05:56 042 2 gusting 9 28.3
2017-Jan-17 05:46 041 2 gusting 9 28.3
2017-Jan-17 05:36 042 5 gusting 11 28.3
2017-Jan-17 05:26 042 3 gusting 8 28.9
2017-Jan-17 05:16 039 2 gusting 10 28.9
2017-Jan-17 05:06 036 1 gusting 12 28.9
2017-Jan-17 04:56 034 3 gusting 12 28.9
2017-Jan-17 04:46 033 2 gusting 9 28.9
2017-Jan-17 04:36 034 2 gusting 10 28.9
2017-Jan-17 04:26 035 5 gusting 11 28.9
2017-Jan-17 04:16 037 6 gusting 13 28.3
2017-Jan-17 04:06 051 5 gusting 12 28.3
2017-Jan-17 03:56 058 5 gusting 10 28.9
2017-Jan-17 03:46 052 3 gusting 11 28.9
2017-Jan-17 03:36 047 2 gusting 8 29.4
2017-Jan-17 03:26 044 1 gusting 11 29.4
2017-Jan-17 03:16 046 2 gusting 10 29.4
2017-Jan-17 03:06 050 1 gusting 7 29.4
2017-Jan-17 02:56 053 3 gusting 10 29.4
2017-Jan-17 02:46 045 1 gusting 9 29.4
2017-Jan-17 02:36 038 3 gusting 10 28.9
2017-Jan-17 02:26 036 5 gusting 12 28.9
2017-Jan-17 02:16 032 6 gusting 11 28.9
2017-Jan-17 02:06 029 5 gusting 12 28.9
2017-Jan-17 01:56 033 6 gusting 12 28.3
2017-Jan-17 01:46 040 3 gusting 9 28.9
2017-Jan-17 01:36 036 3 gusting 13 28.9
2017-Jan-17 01:26 035 2 gusting 11 28.9
2017-Jan-17 01:16 035 3 gusting 10 28.9
2017-Jan-17 01:06 035 2 gusting 10 28.3
2017-Jan-17 00:56 030 6 gusting 11 28.3
2017-Jan-17 00:46 034 1 gusting 9 28.9
2017-Jan-17 00:36 035 3 gusting 11 28.3
2017-Jan-17 00:26 037 2 gusting 8 28.3
2017-Jan-17 00:16 036 1 gusting 8 28.3
2017-Jan-17 00:06 039 5 gusting 10 28.3
2017-Jan-16 23:56 042 3 gusting 9 28.3
2017-Jan-16 23:46 042 2 gusting 8 28.3
2017-Jan-16 23:36 045 3 gusting 10 28.9
2017-Jan-16 23:26 052 1 gusting 8 28.9
2017-Jan-16 23:16 064 2 gusting 10 28.3
2017-Jan-16 23:06 080 0 gusting 8 28.3
2017-Jan-16 22:56 093 2 gusting 9 28.3
2017-Jan-16 22:46 099 0 gusting 8 28.9
2017-Jan-16 22:36 099 28.3
2017-Jan-16 22:26 099 0 gusting 6 28.3
2017-Jan-16 22:16 098 27.8
2017-Jan-16 22:06 099 0 gusting 6 27.8
2017-Jan-16 21:56 098 27.2
2017-Jan-16 21:46 099 26.7
2017-Jan-16 21:36 098 26.1
2017-Jan-16 21:26 098 25.6
2017-Jan-16 21:16 098 25.6
2017-Jan-16 21:06 099 25.0
2017-Jan-16 20:56 098 24.4
2017-Jan-16 20:46 098 23.9
2017-Jan-16 20:36 098 23.3
2017-Jan-16 20:26 23.3
2017-Jan-16 20:16 23.3
2017-Jan-16 20:06 098 23.3
2017-Jan-16 19:56 098 22.8
2017-Jan-16 19:46 22.8
2017-Jan-16 19:37 22.8
2017-Jan-16 19:01 22.2
2017-Jan-16 18:51 22.2
2017-Jan-16 18:41 098 22.2
2017-Jan-16 18:31 098 22.8
2017-Jan-16 18:21 098 22.8
2017-Jan-16 18:18 098 22.8
2017-Jan-16 18:11 098 22.2
2017-Jan-16 18:01 098 22.2
2017-Jan-16 17:51 098 22.2
2017-Jan-16 17:41 22.2
2017-Jan-16 17:31 098 22.2
2017-Jan-16 17:21 098 22.2
2017-Jan-16 17:11 22.8
2017-Jan-16 17:01 22.8
2017-Jan-16 16:58 22.8
2017-Jan-16 16:51 22.8
2017-Jan-16 16:41 22.8
2017-Jan-16 16:31 23.3
2017-Jan-16 16:21 23.3
2017-Jan-16 16:11 23.3
2017-Jan-16 16:01 23.3